Time;durP1;ratioP1;P1;durP2;ratioP2;P2;SDS_P1;SDS_P2;PMS_P1;PMS_P2;Temp;Humidity;BMP_temperature;BMP_pressure;BME280_temperature;BME280_humidity;BME280_pressure;Samples;Min_cycle;Max_cycle;Signal;HPM_P1;HPM_P2
2022/06/24 00:05:48;;;;;;;;;;;23.90;99.90;;;;;;8349453;28;19931;-73
2022/06/24 00:09:50;;;;;;;;;;;23.80;99.90;;;;;;8325913;28;20309;-73
2022/06/24 00:23:59;;;;;;;;;;;23.80;99.90;;;;;;8345376;28;19985;-73
2022/06/24 00:43:17;;;;;;;;;;;23.50;99.90;;;;;;8311820;28;20438;-74
2022/06/24 00:47:20;;;;;;;;;;;23.50;99.90;;;;;;8346715;28;19929;-73
2022/06/24 00:51:22;;;;;;;;;;;23.50;99.90;;;;;;8326129;28;19929;-73
2022/06/24 00:55:31;;;;;;;;;;;23.50;99.90;;;;;;8320228;28;19924;-73
2022/06/24 00:59:34;;;;;;;;;;;23.40;99.90;;;;;;8343896;28;19935;-74
2022/06/24 01:03:37;;;;;;;;;;;23.30;99.90;;;;;;8345347;28;19927;-73
2022/06/24 01:07:39;;;;;;;;;;;23.20;99.90;;;;;;8348539;28;19964;-73
2022/06/24 01:11:43;;;;;;;;;;;23.10;99.90;;;;;;8348064;28;20702;-73
2022/06/24 01:20:48;;;;;;;;;;;22.50;99.90;;;;;;8347155;28;19986;-73
2022/06/24 01:24:50;;;;;;;;;;;22.00;99.90;;;;;;8351428;28;19936;-72
2022/06/24 01:28:52;;;;;;;;;;;21.60;99.90;;;;;;8351105;28;19928;-72
2022/06/24 01:32:54;;;;;;;;;;;21.10;99.90;;;;;;8348218;28;20287;-72
2022/06/24 01:36:56;;;;;;;;;;;20.60;99.90;;;;;;8344778;28;19929;-73
2022/06/24 01:40:57;;;;;;;;;;;20.10;99.90;;;;;;8349175;28;19929;-73
2022/06/24 01:44:59;;;;;;;;;;;19.60;99.90;;;;;;8342876;28;19932;-73
2022/06/24 01:49:01;;;;;;;;;;;19.20;99.90;;;;;;8328184;28;19920;-73
2022/06/24 01:53:02;;;;;;;;;;;19.00;99.90;;;;;;8330914;28;19921;-73
2022/06/24 01:57:04;;;;;;;;;;;18.80;99.90;;;;;;8346082;28;19920;-73
2022/06/24 02:01:06;;;;;;;;;;;18.90;99.90;;;;;;8344645;28;19924;-74
2022/06/24 02:05:08;;;;;;;;;;;19.10;99.90;;;;;;8349680;28;19921;-73
2022/06/24 02:09:10;;;;;;;;;;;19.20;99.90;;;;;;8345480;28;19921;-73
2022/06/24 02:13:27;;;;;;;;;;;19.20;99.90;;;;;;8343358;28;20287;-72
2022/06/24 02:17:29;;;;;;;;;;;19.20;99.90;;;;;;8346260;28;20059;-72
2022/06/24 02:21:30;;;;;;;;;;;19.20;99.90;;;;;;8340857;28;19927;-73
2022/06/24 02:25:32;;;;;;;;;;;19.10;99.90;;;;;;8347076;28;19940;-72
2022/06/24 02:29:34;;;;;;;;;;;19.20;99.90;;;;;;8343855;28;19921;-73
2022/06/24 02:33:35;;;;;;;;;;;19.30;99.90;;;;;;8356208;28;19935;-72
2022/06/24 02:37:37;;;;;;;;;;;19.30;99.90;;;;;;8349557;28;19928;-72
2022/06/24 02:41:39;;;;;;;;;;;19.40;99.90;;;;;;8349581;28;19929;-73
2022/06/24 02:45:40;;;;;;;;;;;19.40;99.90;;;;;;8350345;28;19933;-73
2022/06/24 02:49:42;;;;;;;;;;;19.40;99.90;;;;;;8336581;28;19928;-72
2022/06/24 02:53:44;;;;;;;;;;;19.40;99.90;;;;;;8333914;28;20225;-72
2022/06/24 02:57:45;;;;;;;;;;;19.40;99.90;;;;;;8347220;28;20324;-73
2022/06/24 03:01:47;;;;;;;;;;;19.40;99.90;;;;;;8346673;28;20388;-73
2022/06/24 03:05:49;;;;;;;;;;;19.50;99.90;;;;;;8352194;28;19990;-73
2022/06/24 03:09:51;;;;;;;;;;;19.60;99.90;;;;;;8332331;28;20389;-72
2022/06/24 03:13:53;;;;;;;;;;;19.70;99.90;;;;;;8348808;28;19920;-73
2022/06/24 03:17:54;;;;;;;;;;;19.70;99.90;;;;;;8357949;28;19924;-73
2022/06/24 03:21:56;;;;;;;;;;;19.70;99.90;;;;;;8351268;28;20317;-73
2022/06/24 03:26:00;;;;;;;;;;;19.60;99.90;;;;;;8353137;28;19928;-72
2022/06/24 03:30:03;;;;;;;;;;;19.50;99.90;;;;;;8346559;28;20135;-73
2022/06/24 03:34:04;;;;;;;;;;;19.50;99.90;;;;;;8357395;28;19924;-72
2022/06/24 03:38:06;;;;;;;;;;;19.50;99.90;;;;;;8347538;28;19932;-73
2022/06/24 03:42:08;;;;;;;;;;;19.50;99.90;;;;;;8327037;28;19928;-72
2022/06/24 03:46:09;;;;;;;;;;;19.40;99.90;;;;;;8347079;28;19920;-72
2022/06/24 03:50:11;;;;;;;;;;;19.30;99.90;;;;;;8335495;28;19924;-73
2022/06/24 03:54:13;;;;;;;;;;;19.20;99.90;;;;;;8345921;28;20299;-73
2022/06/24 03:58:16;;;;;;;;;;;19.00;99.90;;;;;;8338113;28;19931;-73
2022/06/24 04:02:18;;;;;;;;;;;18.90;99.90;;;;;;8350854;28;19920;-73
2022/06/24 04:06:20;;;;;;;;;;;18.90;99.90;;;;;;8344934;28;20006;-73
2022/06/24 04:10:22;;;;;;;;;;;18.90;99.90;;;;;;8341095;28;19928;-73
2022/06/24 04:18:44;;;;;;;;;;;18.90;99.90;;;;;;8350271;28;19927;-73
2022/06/24 04:22:46;;;;;;;;;;;19.00;99.90;;;;;;8347725;28;19928;-73
2022/06/24 04:26:47;;;;;;;;;;;19.10;99.90;;;;;;8349323;28;19932;-73
2022/06/24 04:30:49;;;;;;;;;;;19.20;99.90;;;;;;8352340;28;19920;-73
2022/06/24 04:34:51;;;;;;;;;;;19.20;99.90;;;;;;8349477;28;19921;-73
2022/06/24 04:38:52;;;;;;;;;;;19.30;99.90;;;;;;8346414;28;19928;-73
2022/06/24 04:42:54;;;;;;;;;;;19.30;99.90;;;;;;8347266;28;19921;-73
2022/06/24 04:46:56;;;;;;;;;;;19.30;99.90;;;;;;8348425;28;19929;-73
2022/06/24 04:50:58;;;;;;;;;;;19.20;99.90;;;;;;8338797;28;19928;-73
2022/06/24 04:54:59;;;;;;;;;;;19.20;99.90;;;;;;8357616;28;19947;-73
2022/06/24 04:59:01;;;;;;;;;;;19.20;99.90;;;;;;8354638;28;19920;-73
2022/06/24 05:03:03;;;;;;;;;;;19.20;99.90;;;;;;8350099;28;19932;-73
2022/06/24 05:07:05;;;;;;;;;;;19.20;99.90;;;;;;8332010;28;19920;-73
2022/06/24 05:11:06;;;;;;;;;;;19.20;99.90;;;;;;8348594;28;19921;-73
2022/06/24 05:15:08;;;;;;;;;;;19.30;99.90;;;;;;8346364;28;19924;-73
2022/06/24 05:19:11;;;;;;;;;;;19.30;99.90;;;;;;8335735;28;19925;-72
2022/06/24 05:23:12;;;;;;;;;;;19.30;99.90;;;;;;8331993;28;19932;-73
2022/06/24 05:27:14;;;;;;;;;;;19.30;99.90;;;;;;8351472;28;19929;-73
2022/06/24 05:31:16;;;;;;;;;;;19.30;99.90;;;;;;8346798;28;19928;-73
2022/06/24 05:35:17;;;;;;;;;;;19.30;99.90;;;;;;8327116;28;19939;-73
2022/06/24 05:39:19;;;;;;;;;;;19.20;99.90;;;;;;8336770;28;19924;-73
2022/06/24 05:43:21;;;;;;;;;;;19.20;99.90;;;;;;8341449;28;20007;-73
2022/06/24 05:47:22;;;;;;;;;;;19.20;99.90;;;;;;8334579;28;19921;-73
2022/06/24 05:51:24;;;;;;;;;;;19.20;99.90;;;;;;8357721;28;19921;-73
2022/06/24 05:55:26;;;;;;;;;;;19.20;99.90;;;;;;8342941;28;20377;-74
2022/06/24 05:59:28;;;;;;;;;;;19.20;99.90;;;;;;8361649;28;19921;-73
2022/06/24 06:03:30;;;;;;;;;;;19.20;99.90;;;;;;8370147;28;20287;-73
2022/06/24 06:07:32;;;;;;;;;;;19.20;99.90;;;;;;8371613;28;19928;-73
2022/06/24 06:11:33;;;;;;;;;;;19.10;99.90;;;;;;8350882;28;19936;-73
2022/06/24 06:15:35;;;;;;;;;;;19.10;99.90;;;;;;8353652;28;19932;-73
2022/06/24 06:19:37;;;;;;;;;;;19.10;99.90;;;;;;8362132;28;20276;-73
2022/06/24 06:23:40;;;;;;;;;;;19.20;99.90;;;;;;8379397;28;19928;-72
2022/06/24 06:27:41;;;;;;;;;;;19.20;99.90;;;;;;8365079;28;19921;-73
2022/06/24 06:31:43;;;;;;;;;;;19.30;99.90;;;;;;8382957;28;19921;-72
2022/06/24 06:35:45;;;;;;;;;;;19.30;99.90;;;;;;8363612;28;20368;-72
2022/06/24 06:39:47;;;;;;;;;;;19.20;99.90;;;;;;8369073;28;19928;-72
2022/06/24 06:43:49;;;;;;;;;;;19.30;99.90;;;;;;8340662;28;19928;-73
2022/06/24 06:47:53;;;;;;;;;;;19.30;99.90;;;;;;8338458;28;19932;-73
2022/06/24 06:51:55;;;;;;;;;;;19.30;99.90;;;;;;8335244;28;19920;-73
2022/06/24 06:55:56;;;;;;;;;;;19.40;99.90;;;;;;8329875;28;20415;-73
2022/06/24 06:59:58;;;;;;;;;;;19.40;99.90;;;;;;8327701;28;19924;-73
2022/06/24 07:04:00;;;;;;;;;;;19.40;99.90;;;;;;8315617;28;19921;-73
2022/06/24 07:08:02;;;;;;;;;;;19.40;99.90;;;;;;8330061;28;19921;-73
2022/06/24 07:12:03;;;;;;;;;;;19.40;99.90;;;;;;8327143;28;19948;-72
2022/06/24 07:16:09;;;;;;;;;;;19.40;99.90;;;;;;8332353;28;19996;-73
2022/06/24 07:20:11;;;;;;;;;;;19.40;99.90;;;;;;8329530;28;19975;-72
2022/06/24 07:24:13;;;;;;;;;;;19.40;99.90;;;;;;8330809;28;20359;-72
2022/06/24 07:28:15;;;;;;;;;;;19.30;99.90;;;;;;8332821;28;19925;-73
2022/06/24 07:32:16;;;;;;;;;;;19.30;99.90;;;;;;8327711;28;19928;-71
2022/06/24 07:36:18;;;;;;;;;;;19.30;99.90;;;;;;8331716;28;19921;-71
2022/06/24 07:40:20;;;;;;;;;;;19.30;99.90;;;;;;8327362;28;19931;-71
2022/06/24 07:44:21;;;;;;;;;;;19.30;99.90;;;;;;8328552;28;19925;-71
2022/06/24 07:48:23;;;;;;;;;;;19.30;99.90;;;;;;8331095;28;19928;-71
2022/06/24 07:52:25;;;;;;;;;;;19.40;99.90;;;;;;8332327;28;20315;-73
2022/06/24 08:00:48;;;;;;;;;;;19.50;99.90;;;;;;8342141;28;21006;-72
2022/06/24 08:04:50;;;;;;;;;;;19.50;99.90;;;;;;8341975;28;19921;-72
2022/06/24 08:08:52;;;;;;;;;;;19.50;99.90;;;;;;8334181;28;19940;-73
2022/06/24 08:12:53;;;;;;;;;;;19.60;99.90;;;;;;8314642;28;19924;-73
2022/06/24 08:16:55;;;;;;;;;;;19.60;99.90;;;;;;8341515;28;19925;-72
2022/06/24 08:20:57;;;;;;;;;;;19.70;99.90;;;;;;8329183;28;19932;-71
2022/06/24 08:24:59;;;;;;;;;;;19.70;99.90;;;;;;8324337;28;19925;-71
2022/06/24 08:29:21;;;;;;;;;;;19.70;99.90;;;;;;8327565;28;20044;-72
2022/06/24 08:33:23;;;;;;;;;;;19.70;99.90;;;;;;8327872;28;19920;-72
2022/06/24 08:37:24;;;;;;;;;;;19.60;99.90;;;;;;8333792;28;20252;-72
2022/06/24 08:41:26;;;;;;;;;;;19.70;99.90;;;;;;8338180;28;19924;-72
2022/06/24 08:45:28;;;;;;;;;;;19.70;99.90;;;;;;8329957;28;20321;-72
2022/06/24 08:49:33;;;;;;;;;;;19.80;99.90;;;;;;8328932;28;19940;-72
2022/06/24 08:53:36;;;;;;;;;;;19.80;99.90;;;;;;8327674;28;20039;-72
2022/06/24 08:57:37;;;;;;;;;;;19.80;99.90;;;;;;8327615;28;19924;-73
2022/06/24 09:01:40;;;;;;;;;;;19.70;99.90;;;;;;8325770;28;19921;-72
2022/06/24 09:05:42;;;;;;;;;;;19.70;99.90;;;;;;8311216;28;20006;-72
2022/06/24 09:09:55;;;;;;;;;;;19.80;99.90;;;;;;8329116;28;19957;-73
2022/06/24 09:14:00;;;;;;;;;;;19.80;99.90;;;;;;8330845;28;19925;-72
2022/06/24 09:18:01;;;;;;;;;;;19.80;99.90;;;;;;8328054;28;19928;-72
2022/06/24 09:22:03;;;;;;;;;;;19.80;99.90;;;;;;8323588;28;19928;-72
2022/06/24 09:26:10;;;;;;;;;;;19.80;99.90;;;;;;8328646;28;19983;-73
2022/06/24 09:30:12;;;;;;;;;;;19.90;99.90;;;;;;8325199;28;19925;-73
2022/06/24 09:34:18;;;;;;;;;;;20.00;99.90;;;;;;8323934;28;19936;-73
2022/06/24 09:43:26;;;;;;;;;;;20.30;99.90;;;;;;8324048;28;19923;-73
2022/06/24 09:47:28;;;;;;;;;;;20.40;99.90;;;;;;8331618;28;20379;-73
2022/06/24 09:51:30;;;;;;;;;;;20.40;99.90;;;;;;8325660;28;19925;-73
2022/06/24 09:55:31;;;;;;;;;;;20.50;99.90;;;;;;8325022;28;19921;-72
2022/06/24 10:03:54;;;;;;;;;;;20.60;99.90;;;;;;8325849;28;19928;-73
2022/06/24 10:07:57;;;;;;;;;;;20.70;99.90;;;;;;8326775;28;19921;-73
2022/06/24 10:12:00;;;;;;;;;;;20.80;99.90;;;;;;8329187;28;19928;-73
2022/06/24 10:16:03;;;;;;;;;;;20.80;99.90;;;;;;8332574;28;19935;-73
2022/06/24 10:20:06;;;;;;;;;;;20.90;99.90;;;;;;8316755;28;19976;-72
2022/06/24 10:24:14;;;;;;;;;;;20.90;99.90;;;;;;8327722;28;19931;-73
2022/06/24 10:28:16;;;;;;;;;;;20.90;99.90;;;;;;8327365;28;19925;-73
2022/06/24 10:32:17;;;;;;;;;;;21.00;99.90;;;;;;8324543;28;19924;-72
2022/06/24 10:36:29;;;;;;;;;;;21.00;99.90;;;;;;8318748;28;19921;-73
2022/06/24 10:40:31;;;;;;;;;;;21.20;99.90;;;;;;8305202;28;19921;-73
2022/06/24 10:44:36;;;;;;;;;;;21.30;99.90;;;;;;8320781;28;19921;-73
2022/06/24 10:48:44;;;;;;;;;;;21.40;99.90;;;;;;8307439;28;19929;-73
2022/06/24 10:52:47;;;;;;;;;;;21.40;99.90;;;;;;8331964;28;19921;-73
2022/06/24 10:56:50;;;;;;;;;;;21.50;99.90;;;;;;8333294;28;19920;-73
2022/06/24 11:00:52;;;;;;;;;;;21.60;99.90;;;;;;8329405;28;19921;-73
2022/06/24 11:04:55;;;;;;;;;;;21.70;99.90;;;;;;8328637;28;20415;-73
2022/06/24 11:09:09;;;;;;;;;;;21.80;99.90;;;;;;8333655;28;19925;-73
2022/06/24 11:13:10;;;;;;;;;;;21.90;99.90;;;;;;8340570;28;20534;-73
2022/06/24 11:22:16;;;;;;;;;;;22.00;99.90;;;;;;8332014;28;20343;-73
2022/06/24 11:26:19;;;;;;;;;;;21.90;99.90;;;;;;8332309;28;19947;-73
2022/06/24 11:30:20;;;;;;;;;;;21.80;99.90;;;;;;8329776;28;19925;-73
2022/06/24 11:34:23;;;;;;;;;;;21.70;99.90;;;;;;8324106;28;19925;-74
2022/06/24 11:38:24;;;;;;;;;;;21.60;99.90;;;;;;8331293;28;19928;-73
2022/06/24 11:42:26;;;;;;;;;;;21.20;99.90;;;;;;8330178;28;20403;-71
2022/06/24 11:46:28;;;;;;;;;;;20.40;99.90;;;;;;8328098;28;19975;-72
2022/06/24 11:50:31;;;;;;;;;;;19.90;99.90;;;;;;8335123;28;19920;-72
2022/06/24 11:54:33;;;;;;;;;;;19.50;99.90;;;;;;8328908;28;20325;-72
2022/06/24 11:58:35;;;;;;;;;;;19.40;99.90;;;;;;8325897;28;19921;-72
2022/06/24 12:02:37;;;;;;;;;;;19.50;99.90;;;;;;8310553;28;20032;-72
2022/06/24 12:06:40;;;;;;;;;;;19.60;99.90;;;;;;8325744;28;19920;-72
2022/06/24 12:10:54;;;;;;;;;;;19.70;99.90;;;;;;8329009;28;19928;-72
2022/06/24 12:14:56;;;;;;;;;;;19.90;99.90;;;;;;8327068;28;19928;-72
2022/06/24 12:19:06;;;;;;;;;;;20.00;99.90;;;;;;8323296;28;19929;-72
2022/06/24 12:32:58;;;;;;;;;;;20.00;99.90;;;;;;8329522;28;19921;-72
2022/06/24 12:37:01;;;;;;;;;;;20.10;99.90;;;;;;8310148;28;19925;-72
2022/06/24 12:41:10;;;;;;;;;;;20.10;99.90;;;;;;8325013;28;19921;-72
2022/06/24 12:45:22;;;;;;;;;;;20.20;99.90;;;;;;8327452;28;19955;-72
2022/06/24 12:53:45;;;;;;;;;;;20.50;99.90;;;;;;8326079;28;20284;-72
2022/06/24 12:57:47;;;;;;;;;;;20.60;99.90;;;;;;8323051;28;20299;-72
2022/06/24 13:01:49;;;;;;;;;;;20.80;99.90;;;;;;8329030;28;20260;-72
2022/06/24 13:05:50;;;;;;;;;;;20.90;99.90;;;;;;8327312;28;19925;-72
2022/06/24 13:09:52;;;;;;;;;;;21.00;99.90;;;;;;8318837;28;20458;-72
2022/06/24 13:13:54;;;;;;;;;;;21.10;99.90;;;;;;8325502;28;19921;-72
2022/06/24 13:17:55;;;;;;;;;;;21.20;99.90;;;;;;8328704;28;19973;-73
2022/06/24 13:21:57;;;;;;;;;;;21.30;99.90;;;;;;8311734;28;19943;-73
2022/06/24 13:25:59;;;;;;;;;;;21.30;99.90;;;;;;8307112;28;20031;-72
2022/06/24 13:30:01;;;;;;;;;;;21.40;99.90;;;;;;8312710;28;19931;-73
2022/06/24 13:34:03;;;;;;;;;;;21.40;99.90;;;;;;8329512;28;20255;-73
2022/06/24 13:38:04;;;;;;;;;;;21.60;99.90;;;;;;8329541;28;19925;-75
2022/06/24 13:42:06;;;;;;;;;;;21.60;99.90;;;;;;8329165;28;19921;-72
2022/06/24 13:46:08;;;;;;;;;;;21.60;99.90;;;;;;8329429;28;19935;-73
2022/06/24 13:50:10;;;;;;;;;;;21.60;99.90;;;;;;8331491;28;19932;-72
2022/06/24 13:54:12;;;;;;;;;;;21.70;99.90;;;;;;8329922;28;19920;-73
2022/06/24 13:58:14;;;;;;;;;;;21.80;99.90;;;;;;8325933;28;19928;-73
2022/06/24 14:02:19;;;;;;;;;;;21.90;99.90;;;;;;8321785;28;19940;-72
2022/06/24 14:06:30;;;;;;;;;;;21.90;99.90;;;;;;8322351;28;19948;-72
2022/06/24 14:10:32;;;;;;;;;;;21.90;99.90;;;;;;8327928;28;19936;-72
2022/06/24 14:14:33;;;;;;;;;;;22.00;99.90;;;;;;8325285;28;19924;-72
2022/06/24 14:18:35;;;;;;;;;;;22.10;99.90;;;;;;8329440;28;19925;-72
2022/06/24 14:22:38;;;;;;;;;;;22.20;99.90;;;;;;8325992;28;19978;-72
2022/06/24 14:26:39;;;;;;;;;;;22.30;99.90;;;;;;8321904;28;19936;-73
2022/06/24 14:30:41;;;;;;;;;;;22.40;99.90;;;;;;8329697;28;20020;-72
2022/06/24 14:34:42;;;;;;;;;;;22.50;99.90;;;;;;8321579;28;19929;-72
2022/06/24 14:43:05;;;;;;;;;;;22.80;99.90;;;;;;8326510;28;19928;-73
2022/06/24 14:47:06;;;;;;;;;;;22.90;99.90;;;;;;8332379;28;19932;-72
2022/06/24 14:51:08;;;;;;;;;;;23.00;99.90;;;;;;8326578;28;19925;-73
2022/06/24 14:55:10;;;;;;;;;;;23.10;99.90;;;;;;8328193;28;19999;-73
2022/06/24 14:59:12;;;;;;;;;;;23.10;99.90;;;;;;8328871;28;19936;-73
2022/06/24 15:03:13;;;;;;;;;;;23.20;99.90;;;;;;8329910;28;19967;-72
2022/06/24 15:07:15;;;;;;;;;;;23.30;99.90;;;;;;8332187;28;20280;-72
2022/06/24 15:11:19;;;;;;;;;;;23.30;99.90;;;;;;8330015;28;19928;-72
2022/06/24 15:15:20;;;;;;;;;;;23.30;99.90;;;;;;8327242;28;20494;-72
2022/06/24 15:19:22;;;;;;;;;;;23.10;99.90;;;;;;8329307;28;19921;-72
2022/06/24 15:23:23;;;;;;;;;;;23.00;99.90;;;;;;8321650;28;19921;-72
2022/06/24 15:27:25;;;;;;;;;;;22.80;99.90;;;;;;8329357;28;19921;-72
2022/06/24 15:31:27;;;;;;;;;;;22.70;99.90;;;;;;8309094;28;19925;-73
2022/06/24 15:35:29;;;;;;;;;;;22.60;99.90;;;;;;8331224;28;19974;-72
2022/06/24 15:39:31;;;;;;;;;;;22.50;99.90;;;;;;8329106;28;20332;-73
2022/06/24 15:43:33;;;;;;;;;;;22.40;99.90;;;;;;8328678;28;20019;-73
2022/06/24 15:47:35;;;;;;;;;;;22.00;99.90;;;;;;8331122;28;20035;-73
2022/06/24 15:51:37;;;;;;;;;;;21.70;99.90;;;;;;8328647;28;20330;-72
2022/06/24 15:55:38;;;;;;;;;;;21.30;99.90;;;;;;8320868;28;19932;-73
2022/06/24 15:59:40;;;;;;;;;;;21.20;99.90;;;;;;8323974;28;19928;-73
2022/06/24 16:03:42;;;;;;;;;;;21.00;99.90;;;;;;8303494;28;19928;-73
2022/06/24 16:07:43;;;;;;;;;;;21.00;99.90;;;;;;8322664;28;19947;-73
2022/06/24 16:16:25;;;;;;;;;;;21.10;99.90;;;;;;8307446;28;19931;-73
2022/06/24 16:20:27;;;;;;;;;;;21.10;99.90;;;;;;8310833;28;20340;-73
2022/06/24 16:24:31;;;;;;;;;;;21.20;99.90;;;;;;8326571;28;19971;-73
2022/06/24 16:28:41;;;;;;;;;;;21.20;99.90;;;;;;8321282;28;19929;-73
2022/06/24 16:32:44;;;;;;;;;;;21.30;99.90;;;;;;8324969;28;19947;-73
2022/06/24 16:36:45;;;;;;;;;;;21.30;99.90;;;;;;8327655;28;19932;-73
2022/06/24 16:40:47;;;;;;;;;;;21.40;99.90;;;;;;8304968;28;19924;-73
2022/06/24 16:44:48;;;;;;;;;;;21.40;99.90;;;;;;8319808;28;20016;-73
2022/06/24 16:48:55;;;;;;;;;;;21.40;99.90;;;;;;8321082;28;20007;-73
2022/06/24 16:52:57;;;;;;;;;;;21.40;99.90;;;;;;8325090;28;19920;-73
2022/06/24 16:56:58;;;;;;;;;;;21.40;99.90;;;;;;8325010;28;19924;-73
2022/06/24 17:01:00;;;;;;;;;;;21.40;99.90;;;;;;8328219;28;21413;-73
2022/06/24 17:05:02;;;;;;;;;;;21.30;99.90;;;;;;8327554;28;19925;-73
2022/06/24 17:09:04;;;;;;;;;;;21.30;99.90;;;;;;8325868;28;20279;-73
2022/06/24 17:13:08;;;;;;;;;;;21.30;99.90;;;;;;8320489;28;19928;-73
2022/06/24 17:17:10;;;;;;;;;;;21.30;99.90;;;;;;8323644;28;19928;-73
2022/06/24 17:21:12;;;;;;;;;;;21.20;99.90;;;;;;8323463;28;19928;-73
2022/06/24 17:25:14;;;;;;;;;;;21.20;99.90;;;;;;8319864;28;19924;-73
2022/06/24 17:29:16;;;;;;;;;;;21.20;99.90;;;;;;8327690;28;19921;-73
2022/06/24 17:33:17;;;;;;;;;;;21.20;99.90;;;;;;8329943;28;19924;-73
2022/06/24 17:37:19;;;;;;;;;;;21.20;99.90;;;;;;8342202;28;19928;-73
2022/06/24 17:41:21;;;;;;;;;;;21.30;99.90;;;;;;8320785;28;20216;-73
2022/06/24 17:45:23;;;;;;;;;;;21.30;99.90;;;;;;8308341;28;19925;-73
2022/06/24 17:49:24;;;;;;;;;;;21.40;99.90;;;;;;8330622;28;19939;-73
2022/06/24 17:53:26;;;;;;;;;;;21.40;99.90;;;;;;8330497;28;19948;-73
2022/06/24 17:57:28;;;;;;;;;;;21.50;99.90;;;;;;8326893;28;19932;-73
2022/06/24 18:01:30;;;;;;;;;;;21.60;99.90;;;;;;8329291;28;19925;-73
2022/06/24 18:05:31;;;;;;;;;;;21.80;99.90;;;;;;8334141;28;19924;-73
2022/06/24 18:09:33;;;;;;;;;;;21.90;99.90;;;;;;8321609;28;19921;-73
2022/06/24 18:13:35;;;;;;;;;;;22.00;99.90;;;;;;8332361;28;19928;-73
2022/06/24 18:17:37;;;;;;;;;;;22.00;99.90;;;;;;8344097;28;19921;-73
2022/06/24 18:21:39;;;;;;;;;;;22.00;99.90;;;;;;8338238;28;19982;-73
2022/06/24 18:25:41;;;;;;;;;;;22.00;99.90;;;;;;8334591;28;19925;-73
2022/06/24 18:29:42;;;;;;;;;;;22.00;99.90;;;;;;8333140;28;19929;-74
2022/06/24 18:33:44;;;;;;;;;;;22.00;99.90;;;;;;8317495;28;19925;-73
2022/06/24 18:37:47;;;;;;;;;;;22.00;99.90;;;;;;8329274;28;19925;-73
2022/06/24 18:41:48;;;;;;;;;;;22.00;99.90;;;;;;8330938;28;19921;-73
2022/06/24 18:45:50;;;;;;;;;;;21.90;99.90;;;;;;8325482;28;19921;-73
2022/06/24 18:49:52;;;;;;;;;;;21.80;99.90;;;;;;8332763;28;19933;-73
2022/06/24 18:53:53;;;;;;;;;;;21.80;99.90;;;;;;8322077;28;19925;-73
2022/06/24 18:57:55;;;;;;;;;;;21.70;99.90;;;;;;8333607;28;20001;-73
2022/06/24 19:01:57;;;;;;;;;;;21.70;99.90;;;;;;8332702;28;19921;-74
2022/06/24 19:05:59;;;;;;;;;;;21.60;99.90;;;;;;8333196;28;19979;-73
2022/06/24 19:10:00;;;;;;;;;;;21.50;99.90;;;;;;8336178;28;19927;-73
2022/06/24 19:14:02;;;;;;;;;;;21.50;99.90;;;;;;8339611;28;20024;-73
2022/06/24 19:18:05;;;;;;;;;;;21.40;99.90;;;;;;8325460;28;19921;-74
2022/06/24 19:22:07;;;;;;;;;;;21.40;99.90;;;;;;8328975;28;19936;-74
2022/06/24 19:26:09;;;;;;;;;;;21.30;99.90;;;;;;8303989;28;20364;-73
2022/06/24 19:30:11;;;;;;;;;;;21.30;99.90;;;;;;8329197;28;19927;-73
2022/06/24 19:34:12;;;;;;;;;;;21.30;99.90;;;;;;8327536;28;20297;-73
2022/06/24 19:38:14;;;;;;;;;;;21.20;99.90;;;;;;8326325;28;20583;-73
2022/06/24 19:42:16;;;;;;;;;;;21.20;99.90;;;;;;8338504;28;19924;-73
2022/06/24 19:46:17;;;;;;;;;;;21.20;99.90;;;;;;8341204;28;19936;-74
2022/06/24 19:50:19;;;;;;;;;;;21.10;99.90;;;;;;8326709;28;19921;-73
2022/06/24 19:54:21;;;;;;;;;;;21.10;99.90;;;;;;8331723;28;19925;-73
2022/06/24 19:58:23;;;;;;;;;;;21.10;99.90;;;;;;8332301;28;19920;-73
2022/06/24 20:06:44;;;;;;;;;;;20.90;99.90;;;;;;8327144;28;19928;-73
2022/06/24 20:10:46;;;;;;;;;;;20.80;99.90;;;;;;8329641;28;19927;-74
2022/06/24 20:14:48;;;;;;;;;;;20.80;99.90;;;;;;8332234;28;20367;-74
2022/06/24 20:18:50;;;;;;;;;;;20.80;99.90;;;;;;8331200;28;19921;-73
2022/06/24 20:22:51;;;;;;;;;;;20.70;99.90;;;;;;8327066;28;20191;-73
2022/06/24 20:26:53;;;;;;;;;;;20.70;99.90;;;;;;8309997;28;19951;-73
2022/06/24 20:30:55;;;;;;;;;;;20.60;99.90;;;;;;8308253;28;19924;-73
2022/06/24 20:34:57;;;;;;;;;;;20.60;99.90;;;;;;8325022;28;19975;-74
2022/06/24 20:38:59;;;;;;;;;;;20.60;99.90;;;;;;8328332;28;19928;-73
2022/06/24 20:43:00;;;;;;;;;;;20.50;99.90;;;;;;8328475;28;19944;-73
2022/06/24 20:47:02;;;;;;;;;;;20.50;99.90;;;;;;8330929;28;19924;-74
2022/06/24 20:51:04;;;;;;;;;;;20.40;99.90;;;;;;8313315;28;19956;-74
2022/06/24 20:55:06;;;;;;;;;;;20.30;99.90;;;;;;8330656;28;19982;-73
2022/06/24 20:59:08;;;;;;;;;;;20.20;99.90;;;;;;8323177;28;20022;-74
2022/06/24 21:03:11;;;;;;;;;;;20.20;99.90;;;;;;8344461;28;20418;-73
2022/06/24 21:07:12;;;;;;;;;;;20.20;99.90;;;;;;8373120;28;19928;-74
2022/06/24 21:11:14;;;;;;;;;;;20.10;99.90;;;;;;8373088;28;19928;-73
2022/06/24 21:15:16;;;;;;;;;;;20.10;99.90;;;;;;8363469;28;19953;-74
2022/06/24 21:19:18;;;;;;;;;;;20.10;99.90;;;;;;8371130;28;19921;-74
2022/06/24 21:23:19;;;;;;;;;;;20.10;99.90;;;;;;8373070;28;20280;-74
2022/06/24 21:27:21;;;;;;;;;;;20.10;99.90;;;;;;8377476;28;19924;-74
2022/06/24 21:31:23;;;;;;;;;;;20.00;99.90;;;;;;8363231;28;19951;-73
2022/06/24 21:35:25;;;;;;;;;;;20.00;99.90;;;;;;8363938;28;19927;-73
2022/06/24 21:39:27;;;;;;;;;;;19.90;99.90;;;;;;8362774;28;20332;-73
2022/06/24 21:43:28;;;;;;;;;;;19.90;99.90;;;;;;8362262;28;20766;-73
2022/06/24 21:47:30;;;;;;;;;;;19.90;99.90;;;;;;8367840;28;19927;-73
2022/06/24 21:51:32;;;;;;;;;;;19.80;99.90;;;;;;8361994;28;20361;-74
2022/06/24 21:55:34;;;;;;;;;;;19.80;99.90;;;;;;8365585;28;20255;-73
2022/06/24 21:59:35;;;;;;;;;;;19.80;99.90;;;;;;8374684;28;19927;-74
2022/06/24 22:03:37;;;;;;;;;;;19.80;99.90;;;;;;8339576;28;20386;-73
2022/06/24 22:07:39;;;;;;;;;;;19.70;99.90;;;;;;8350464;28;19921;-73
2022/06/24 22:11:42;;;;;;;;;;;19.70;99.90;;;;;;8353437;28;20635;-74
2022/06/24 22:15:44;;;;;;;;;;;19.70;99.90;;;;;;8342882;28;19929;-73
2022/06/24 22:19:46;;;;;;;;;;;19.70;99.90;;;;;;8339543;28;19924;-73
2022/06/24 22:23:47;;;;;;;;;;;19.60;99.90;;;;;;8369469;28;19925;-73
2022/06/24 22:27:50;;;;;;;;;;;19.60;99.90;;;;;;8371462;28;19921;-73
2022/06/24 22:31:52;;;;;;;;;;;19.50;99.90;;;;;;8346393;28;19929;-73
2022/06/24 22:35:53;;;;;;;;;;;19.50;99.90;;;;;;8367634;28;20300;-73
2022/06/24 22:39:55;;;;;;;;;;;19.50;99.90;;;;;;8358851;28;19931;-73
2022/06/24 22:43:57;;;;;;;;;;;19.50;99.90;;;;;;8359364;28;20629;-73
2022/06/24 22:47:58;;;;;;;;;;;19.50;99.90;;;;;;8373261;28;20008;-73
2022/06/24 22:52:00;;;;;;;;;;;19.50;99.90;;;;;;8359959;28;19924;-74
2022/06/24 22:56:02;;;;;;;;;;;19.50;99.90;;;;;;8373455;28;19935;-73
2022/06/24 23:00:04;;;;;;;;;;;19.40;99.90;;;;;;8364210;28;19927;-73
2022/06/24 23:04:08;;;;;;;;;;;19.40;99.90;;;;;;8388752;28;19920;-73
2022/06/24 23:08:10;;;;;;;;;;;19.40;99.90;;;;;;8357457;28;19921;-73
2022/06/24 23:12:12;;;;;;;;;;;19.40;99.90;;;;;;8377640;28;19974;-73
2022/06/24 23:16:15;;;;;;;;;;;19.30;99.90;;;;;;8376943;28;19920;-73
2022/06/24 23:20:17;;;;;;;;;;;19.30;99.90;;;;;;8372300;28;19929;-73
2022/06/24 23:24:18;;;;;;;;;;;19.30;99.90;;;;;;8358506;28;20236;-73
2022/06/24 23:28:20;;;;;;;;;;;19.30;99.90;;;;;;8383178;28;19943;-73
2022/06/24 23:32:22;;;;;;;;;;;19.20;99.90;;;;;;8357344;28;19924;-73
2022/06/24 23:36:24;;;;;;;;;;;19.20;99.90;;;;;;8371574;28;20340;-74
2022/06/24 23:40:29;;;;;;;;;;;19.20;99.90;;;;;;8364547;28;20380;-74
2022/06/24 23:44:30;;;;;;;;;;;19.10;99.90;;;;;;8371267;28;19978;-73
2022/06/24 23:52:52;;;;;;;;;;;19.10;99.90;;;;;;8380452;28;19925;-74
2022/06/24 23:56:54;;;;;;;;;;;19.00;99.90;;;;;;8361914;28;19929;-74
